createdAt,value
2018-07-27T00:00:53.143Z,101173.43
2018-07-27T00:03:20.132Z,101169.00
2018-07-27T00:05:47.237Z,101173.27
2018-07-27T00:08:14.572Z,101167.23
2018-07-27T00:10:41.607Z,101166.67
2018-07-27T00:13:08.601Z,101167.09
2018-07-27T00:15:35.675Z,101161.81
2018-07-27T00:18:02.679Z,101161.34
2018-07-27T00:20:29.691Z,101159.48
2018-07-27T00:22:56.773Z,101161.18
2018-07-27T00:25:24.110Z,101153.66
2018-07-27T00:27:51.282Z,101154.53
2018-07-27T00:30:18.342Z,101154.44
2018-07-27T00:32:45.327Z,101156.91
2018-07-27T00:35:12.371Z,101158.63
2018-07-27T00:37:39.472Z,101155.66
2018-07-27T00:40:06.578Z,101158.63
2018-07-27T00:42:33.578Z,101148.68
2018-07-27T00:45:00.563Z,101151.66
2018-07-27T00:47:27.802Z,101153.64
2018-07-27T00:49:54.782Z,101149.43
2018-07-27T00:52:21.767Z,101148.66
2018-07-27T00:54:48.906Z,101149.10
2018-07-27T00:57:15.883Z,101147.45
2018-07-27T00:59:43.013Z,101150.64
2018-07-27T01:02:10.136Z,101148.96
2018-07-27T01:04:37.256Z,101142.38
2018-07-27T01:07:04.279Z,101141.30
2018-07-27T01:09:31.307Z,101147.33
2018-07-27T01:11:58.373Z,101143.73
2018-07-27T01:14:25.677Z,101139.78
2018-07-27T01:16:52.784Z,101146.81
2018-07-27T01:19:19.864Z,101142.58
2018-07-27T01:21:46.867Z,101138.67
2018-07-27T01:24:13.831Z,101138.99
2018-07-27T01:26:44.607Z,101082.92
2018-07-27T01:29:12.164Z,101132.55
2018-07-27T01:31:39.135Z,101141.50
2018-07-27T01:34:06.123Z,101132.86
2018-07-27T01:36:33.227Z,101137.63
2018-07-27T01:39:00.237Z,101142.75
2018-07-27T01:41:27.211Z,101139.36
2018-07-27T01:46:20.811Z,101132.52
2018-07-27T01:48:47.789Z,101144.20
2018-07-27T01:51:14.781Z,101141.58
2018-07-27T01:53:41.740Z,101139.53
2018-07-27T01:56:09.015Z,101138.52
2018-07-27T01:58:36.021Z,101134.52
2018-07-27T02:01:03.021Z,101140.47
2018-07-27T02:03:30.072Z,101140.38
2018-07-27T02:05:57.132Z,101135.89
2018-07-27T02:08:24.223Z,101130.11
2018-07-27T02:10:51.277Z,101129.77
2018-07-27T02:13:18.251Z,101128.71
2018-07-27T02:15:45.241Z,101129.70
2018-07-27T02:18:12.313Z,101131.13
2018-07-27T02:20:39.323Z,101129.17
2018-07-27T02:23:06.383Z,101127.69
2018-07-27T02:25:33.372Z,101126.41
2018-07-27T02:28:00.350Z,101121.97
2018-07-27T02:30:27.520Z,101121.48
2018-07-27T02:32:54.524Z,101114.00
2018-07-27T02:35:21.933Z,101116.03
2018-07-27T02:37:48.953Z,101116.88
2018-07-27T02:40:15.964Z,101106.53
2018-07-27T02:42:42.981Z,101113.89
2018-07-27T02:45:09.995Z,101111.56
2018-07-27T02:47:37.055Z,101110.89
2018-07-27T02:50:04.640Z,101115.70
2018-07-27T02:52:31.690Z,101116.42
2018-07-27T02:54:58.752Z,101109.69
2018-07-27T02:57:25.777Z,101107.73
2018-07-27T02:59:52.811Z,101100.75
2018-07-27T03:02:19.819Z,101101.37
2018-07-27T03:04:46.841Z,101104.60
2018-07-27T03:07:13.887Z,101103.70
2018-07-27T03:09:40.950Z,101102.97
2018-07-27T03:12:07.978Z,101103.36
2018-07-27T03:14:34.994Z,101102.00
2018-07-27T03:17:01.996Z,101107.98
2018-07-27T03:19:28.975Z,101100.91
2018-07-27T03:21:55.973Z,101103.94
2018-07-27T03:24:23.791Z,101105.31
2018-07-27T03:26:50.895Z,101103.66
2018-07-27T03:29:17.907Z,101103.18
2018-07-27T03:31:44.917Z,101103.98
2018-07-27T03:34:11.929Z,101105.46
2018-07-27T03:36:38.923Z,101100.03
2018-07-27T03:39:07.521Z,101098.02
2018-07-27T03:41:34.551Z,101098.77
2018-07-27T03:44:01.888Z,101101.29
2018-07-27T03:46:28.907Z,101099.45
2018-07-27T03:48:56.225Z,101098.82
2018-07-27T03:51:23.297Z,101098.23
2018-07-27T03:53:50.373Z,101102.70
2018-07-27T03:56:17.418Z,101101.13
2018-07-27T03:58:44.428Z,101100.38
2018-07-27T04:01:11.496Z,101107.29
2018-07-27T04:03:38.540Z,101101.96
2018-07-27T04:06:05.543Z,101110.45
2018-07-27T04:08:32.595Z,101105.13
2018-07-27T04:10:59.580Z,101106.65
2018-07-27T04:13:26.669Z,101108.82
2018-07-27T04:15:53.790Z,101101.81
2018-07-27T04:18:20.812Z,101110.14
2018-07-27T04:20:47.899Z,101112.28
2018-07-27T04:23:14.912Z,101109.98
2018-07-27T04:25:41.995Z,101107.06
2018-07-27T04:28:08.993Z,101105.40
2018-07-27T04:30:36.023Z,101104.09
2018-07-27T04:33:09.903Z,101105.31
2018-07-27T04:35:37.042Z,101105.13
2018-07-27T04:38:04.387Z,101102.99
2018-07-27T04:40:31.408Z,101110.26
2018-07-27T04:42:58.437Z,101108.21
2018-07-27T04:45:25.384Z,101110.23
2018-07-27T04:47:52.488Z,101109.40
2018-07-27T04:50:19.559Z,101107.87
2018-07-27T04:52:46.669Z,101090.15
2018-07-27T04:55:13.699Z,101118.50
2018-07-27T04:57:40.830Z,101112.66
2018-07-27T05:00:07.906Z,101117.62
2018-07-27T05:02:35.020Z,101122.36
2018-07-27T05:05:02.059Z,101121.17
2018-07-27T05:07:29.147Z,101119.64
2018-07-27T05:09:56.159Z,101125.25
2018-07-27T05:12:23.265Z,101119.98
2018-07-27T05:14:50.363Z,101122.20
2018-07-27T05:17:17.441Z,101121.95
2018-07-27T05:19:44.451Z,101121.92
2018-07-27T05:22:11.471Z,101134.31
2018-07-27T05:24:38.520Z,101122.52
2018-07-27T05:27:05.508Z,101133.66
2018-07-27T05:29:32.727Z,101136.38
2018-07-27T05:31:59.755Z,101138.69
2018-07-27T05:34:26.800Z,101127.38
2018-07-27T05:36:53.812Z,101124.46
2018-07-27T05:39:20.817Z,101130.38
2018-07-27T05:41:47.893Z,101130.35
2018-07-27T05:44:14.910Z,101130.69
2018-07-27T05:46:42.019Z,101125.24
2018-07-27T05:49:09.041Z,101122.79
2018-07-27T05:51:37.083Z,101128.37
2018-07-27T05:54:04.197Z,101126.25
2018-07-27T05:56:31.189Z,101124.73
2018-07-27T05:58:58.374Z,101122.70
2018-07-27T06:01:25.663Z,101129.22
2018-07-27T06:03:52.679Z,101127.27
2018-07-27T06:06:19.695Z,101130.12
2018-07-27T06:08:46.840Z,101134.03
2018-07-27T06:11:13.850Z,101131.07
2018-07-27T06:13:40.871Z,101126.42
2018-07-27T06:16:08.385Z,101125.88
2018-07-27T06:18:35.389Z,101126.45
2018-07-27T06:21:02.532Z,101130.36
2018-07-27T06:23:29.609Z,101127.94
2018-07-27T06:25:56.759Z,101126.86
2018-07-27T06:28:23.769Z,101125.72
2018-07-27T06:30:50.782Z,101128.86
2018-07-27T06:33:17.973Z,101128.08
2018-07-27T06:35:44.988Z,101134.69
2018-07-27T06:38:12.002Z,101133.58
2018-07-27T06:40:39.088Z,101134.25
2018-07-27T06:43:06.204Z,101133.11
2018-07-27T06:45:33.305Z,101131.20
2018-07-27T06:48:00.600Z,101125.72
2018-07-27T06:50:27.786Z,101125.37
2018-07-27T06:52:54.775Z,101122.48
2018-07-27T06:55:21.780Z,101125.70
2018-07-27T06:57:48.769Z,101120.38
2018-07-27T07:00:16.133Z,101117.06
2018-07-27T07:02:43.145Z,101121.06
2018-07-27T07:05:10.165Z,101117.73
2018-07-27T07:07:37.188Z,101114.47
2018-07-27T07:10:04.679Z,101123.98
2018-07-27T07:12:31.674Z,101113.91
2018-07-27T07:14:58.708Z,101117.47
2018-07-27T07:17:25.716Z,101122.17
2018-07-27T07:19:52.736Z,101114.19
2018-07-27T07:22:19.831Z,101117.30
2018-07-27T07:24:46.904Z,101113.53
2018-07-27T07:27:13.908Z,101116.58
2018-07-27T07:29:41.017Z,101114.55
2018-07-27T07:32:08.094Z,101115.06
2018-07-27T07:34:35.127Z,101114.71
2018-07-27T07:37:02.131Z,101109.23
2018-07-27T07:39:29.128Z,101112.72
2018-07-27T07:41:56.135Z,101106.41
2018-07-27T07:44:23.151Z,101108.28
2018-07-27T07:46:50.166Z,101103.14
2018-07-27T07:49:17.186Z,101100.63
2018-07-27T07:51:44.159Z,101099.87
2018-07-27T07:54:11.232Z,101103.41
2018-07-27T07:56:38.267Z,101101.70
2018-07-27T07:59:05.635Z,101097.87
2018-07-27T08:01:33.537Z,101100.95
2018-07-27T08:04:00.603Z,101097.55
2018-07-27T08:06:27.903Z,101098.47
2018-07-27T08:08:55.416Z,101102.86
2018-07-27T08:11:22.776Z,101107.14
2018-07-27T08:13:50.421Z,101101.20
2018-07-27T08:16:17.399Z,101099.95
2018-07-27T08:18:44.499Z,101098.69
2018-07-27T08:21:11.864Z,101104.70
2018-07-27T08:23:38.946Z,101096.62
2018-07-27T08:26:48.425Z,101101.33
2018-07-27T08:29:16.824Z,101095.38
2018-07-27T08:31:44.899Z,101092.84
2018-07-27T08:34:12.919Z,101094.15
2018-07-27T08:36:39.912Z,101089.42
2018-07-27T08:39:15.799Z,101093.36
2018-07-27T08:41:43.176Z,101090.81
2018-07-27T08:44:11.405Z,101093.83
2018-07-27T08:46:38.772Z,101086.54
2018-07-27T08:49:05.844Z,101083.97
2018-07-27T08:51:32.997Z,101083.99
2018-07-27T08:54:06.967Z,101078.41
2018-07-27T08:56:33.988Z,101069.83
2018-07-27T08:59:01.140Z,101076.75
2018-07-27T09:01:28.165Z,101069.02
2018-07-27T09:03:55.246Z,101069.88
2018-07-27T09:06:22.218Z,101074.16
2018-07-27T09:08:49.775Z,101067.28
2018-07-27T09:11:17.011Z,101062.54
2018-07-27T09:13:44.026Z,101065.11
2018-07-27T09:16:11.038Z,101056.06
2018-07-27T09:18:38.257Z,101059.06
2018-07-27T09:21:05.299Z,101055.23
2018-07-27T09:23:32.333Z,101058.62
2018-07-27T09:25:59.364Z,101058.62
2018-07-27T09:28:26.867Z,101058.17
2018-07-27T09:30:54.484Z,101053.83
2018-07-27T09:33:21.576Z,101051.71
2018-07-27T09:35:48.618Z,101050.81
2018-07-27T09:38:15.795Z,101052.48
2018-07-27T09:40:42.875Z,101057.18
2018-07-27T09:43:09.880Z,101054.19
2018-07-27T09:45:36.864Z,101055.02
2018-07-27T09:48:03.863Z,101049.38
2018-07-27T09:50:30.905Z,101046.36
2018-07-27T09:52:58.040Z,101046.30
2018-07-27T09:55:25.295Z,101049.69
2018-07-27T09:57:52.366Z,101044.05
2018-07-27T10:00:25.069Z,101047.91
2018-07-27T10:02:52.095Z,101044.48
2018-07-27T10:05:19.139Z,101041.01
2018-07-27T10:07:46.179Z,101033.14
2018-07-27T10:10:13.176Z,101041.73
2018-07-27T10:12:40.255Z,101030.48
2018-07-27T10:15:07.331Z,101036.52
2018-07-27T10:17:34.323Z,101030.39
2018-07-27T10:20:01.318Z,101040.69
2018-07-27T10:22:28.342Z,101026.44
2018-07-27T10:24:55.479Z,101030.10
2018-07-27T10:27:22.480Z,101013.31
2018-07-27T10:29:49.595Z,101013.11
2018-07-27T10:32:16.612Z,101010.77
2018-07-27T10:34:43.647Z,101009.14
2018-07-27T10:37:10.744Z,101014.75
2018-07-27T10:39:37.831Z,101016.87
2018-07-27T10:42:05.247Z,101013.33
2018-07-27T10:44:32.257Z,101011.46
2018-07-27T10:46:59.297Z,101011.77
2018-07-27T10:49:26.311Z,101005.12
2018-07-27T10:51:53.392Z,101009.48
2018-07-27T10:54:20.392Z,101003.86
2018-07-27T10:56:47.511Z,101002.87
2018-07-27T10:59:14.498Z,101005.77
2018-07-27T11:01:41.515Z,101004.33
2018-07-27T11:04:08.557Z,100994.01
2018-07-27T11:06:35.555Z,100991.38
2018-07-27T11:09:02.657Z,100989.08
2018-07-27T11:11:29.735Z,100991.19
2018-07-27T11:13:56.818Z,100982.45
2018-07-27T11:16:23.866Z,100982.00
2018-07-27T11:18:50.930Z,100983.48
2018-07-27T11:21:17.948Z,100978.88
2018-07-27T11:23:44.977Z,100979.11
2018-07-27T11:26:12.196Z,100968.13
2018-07-27T11:28:39.204Z,100966.56
2018-07-27T11:31:06.261Z,100971.06
2018-07-27T11:33:33.601Z,100971.17
2018-07-27T11:36:00.700Z,100960.35
2018-07-27T11:38:28.360Z,100959.45
2018-07-27T11:40:55.696Z,100954.27
2018-07-27T11:43:22.711Z,100951.69
2018-07-27T11:45:49.802Z,100946.09
2018-07-27T11:48:16.929Z,100942.12
2018-07-27T11:50:43.962Z,100940.38
2018-07-27T11:53:11.119Z,100925.02
2018-07-27T11:55:38.255Z,100918.34
2018-07-27T11:58:05.650Z,100929.70
2018-07-27T12:00:32.668Z,100934.48
2018-07-27T12:02:59.670Z,100922.97
2018-07-27T12:05:26.987Z,100924.21
2018-07-27T12:07:54.083Z,100926.52
2018-07-27T12:10:21.140Z,100918.06
2018-07-27T12:12:48.375Z,100922.25
2018-07-27T12:15:16.600Z,100914.19
2018-07-27T12:17:43.491Z,100915.22
2018-07-27T12:20:10.584Z,100919.70
2018-07-27T12:22:37.607Z,100919.70
2018-07-27T12:25:04.715Z,100913.59
2018-07-27T12:27:31.827Z,100909.14
2018-07-27T12:29:58.863Z,100906.92
2018-07-27T12:32:26.195Z,100904.54
2018-07-27T12:34:53.624Z,100894.22
2018-07-27T12:37:20.978Z,100894.99
2018-07-27T12:39:48.029Z,100890.39
2018-07-27T12:42:15.073Z,100899.25
2018-07-27T12:44:42.336Z,100893.59
2018-07-27T12:47:09.694Z,100898.16
2018-07-27T12:49:37.218Z,100892.28
2018-07-27T12:52:04.231Z,100891.75
2018-07-27T12:54:31.450Z,100872.08
2018-07-27T12:56:58.688Z,100884.63
2018-07-27T12:59:26.605Z,100870.82
2018-07-27T13:01:53.713Z,100867.63
2018-07-27T13:04:23.985Z,100867.27
2018-07-27T13:06:51.229Z,100860.02
2018-07-27T13:09:18.546Z,100864.03
2018-07-27T13:11:45.672Z,100861.36
2018-07-27T13:14:12.877Z,100862.32
2018-07-27T13:16:40.004Z,100846.66
2018-07-27T13:19:07.255Z,100836.69
2018-07-27T13:21:34.329Z,100845.18
2018-07-27T13:24:02.208Z,100846.67
2018-07-27T13:26:29.378Z,100849.20
2018-07-27T13:28:56.696Z,100837.48
2018-07-27T13:31:35.266Z,100845.00
2018-07-27T13:34:13.415Z,100839.36
2018-07-27T13:36:42.056Z,100833.04
2018-07-27T13:39:09.106Z,100835.95
2018-07-27T13:41:36.231Z,100833.97
2018-07-27T13:44:03.525Z,100829.15
2018-07-27T13:46:30.619Z,100831.23
2018-07-27T13:48:57.931Z,100835.42
2018-07-27T13:51:25.084Z,100828.90
2018-07-27T13:53:52.092Z,100829.10
2018-07-27T13:56:20.369Z,100823.33
2018-07-27T13:58:47.464Z,100817.97
2018-07-27T14:01:14.579Z,100817.31
2018-07-27T14:03:42.659Z,100812.80
2018-07-27T14:06:09.726Z,100808.86
2018-07-27T14:08:37.800Z,100812.09
2018-07-27T14:11:04.952Z,100810.00
2018-07-27T14:13:31.977Z,100799.80
2018-07-27T14:16:04.337Z,100806.31
2018-07-27T14:18:31.427Z,100806.95
2018-07-27T14:20:58.995Z,100800.55
2018-07-27T14:23:26.047Z,100800.03
2018-07-27T14:25:53.297Z,100799.47
2018-07-27T14:28:20.855Z,100789.16
2018-07-27T14:30:47.873Z,100789.89
2018-07-27T14:33:15.203Z,100787.88
2018-07-27T14:35:42.271Z,100789.82
2018-07-27T14:38:09.841Z,100787.85
2018-07-27T14:40:36.859Z,100782.98
2018-07-27T14:43:03.890Z,100777.16
2018-07-27T14:45:31.464Z,100778.95
2018-07-27T14:47:59.184Z,100777.59
2018-07-27T14:50:26.280Z,100767.84
2018-07-27T14:52:53.480Z,100765.97
2018-07-27T14:55:20.493Z,100760.02
2018-07-27T14:57:47.539Z,100752.59
2018-07-27T15:00:14.601Z,100751.61
2018-07-27T15:02:41.641Z,100686.70
2018-07-27T15:05:08.692Z,100748.66
2018-07-27T15:07:35.719Z,100749.09
2018-07-27T15:10:02.884Z,100753.66
2018-07-27T15:12:29.927Z,100746.19
2018-07-27T15:14:57.740Z,100748.59
2018-07-27T15:17:24.767Z,100748.27
2018-07-27T15:19:51.810Z,100740.35
2018-07-27T15:22:21.751Z,100749.70
2018-07-27T15:24:48.870Z,100747.55
2018-07-27T15:27:15.910Z,100745.48
2018-07-27T15:29:42.976Z,100750.25
2018-07-27T15:32:10.148Z,100744.41
2018-07-27T15:34:37.339Z,100747.75
2018-07-27T15:37:04.681Z,100741.30
2018-07-27T15:39:31.797Z,100741.98
2018-07-27T15:41:58.863Z,100740.79
2018-07-27T15:44:30.408Z,100746.56
2018-07-27T15:46:57.497Z,100735.86
2018-07-27T15:49:24.582Z,100733.78
2018-07-27T15:51:51.933Z,100735.13
2018-07-27T15:54:19.118Z,100725.20
2018-07-27T15:56:46.174Z,100730.44
2018-07-27T15:59:13.208Z,100734.28
2018-07-27T16:01:41.017Z,100730.90
2018-07-27T16:04:08.144Z,100727.58
2018-07-27T16:06:35.167Z,100725.95
2018-07-27T16:09:02.375Z,100727.73
2018-07-27T16:11:29.684Z,100732.56
2018-07-27T16:13:56.810Z,100726.19
2018-07-27T16:16:23.977Z,100727.17
2018-07-27T16:18:51.213Z,100722.94
2018-07-27T16:21:18.941Z,100720.62
2018-07-27T16:23:46.884Z,100712.38
2018-07-27T16:26:13.899Z,100713.48
2018-07-27T16:28:41.429Z,100714.38
2018-07-27T16:31:08.455Z,100706.17
2018-07-27T16:33:35.867Z,100704.98
2018-07-27T16:36:02.900Z,100701.45
2018-07-27T16:38:30.010Z,100703.05
2018-07-27T16:40:58.041Z,100704.39
2018-07-27T16:43:25.188Z,100709.80
2018-07-27T16:45:52.212Z,100708.18
2018-07-27T16:48:19.313Z,100701.84
2018-07-27T16:50:46.394Z,100709.64
2018-07-27T16:53:15.360Z,100703.89
2018-07-27T16:55:42.360Z,100699.89
2018-07-27T16:58:09.726Z,100698.75
2018-07-27T17:00:39.387Z,100695.73
2018-07-27T17:03:06.374Z,100694.59
2018-07-27T17:05:35.028Z,100697.80
2018-07-27T17:08:02.114Z,100697.28
2018-07-27T17:10:30.660Z,100704.11
2018-07-27T17:13:00.125Z,100707.06
2018-07-27T17:15:27.386Z,100696.77
2018-07-27T17:17:54.532Z,100691.33
2018-07-27T17:20:21.542Z,100689.59
2018-07-27T17:22:48.516Z,100697.42
2018-07-27T17:25:15.688Z,100691.50
2018-07-27T17:27:42.653Z,100693.65
2018-07-27T17:30:09.713Z,100690.28
2018-07-27T17:32:37.268Z,100685.17
2018-07-27T17:35:04.537Z,100680.45
2018-07-27T17:37:31.675Z,100681.43
2018-07-27T17:39:59.150Z,100687.03
2018-07-27T17:42:26.123Z,100691.34
2018-07-27T17:44:53.179Z,100695.69
2018-07-27T17:47:20.205Z,100694.05
2018-07-27T17:49:47.176Z,100690.61
2018-07-27T17:52:14.240Z,100694.13
2018-07-27T17:54:41.347Z,100698.52
2018-07-27T17:57:08.447Z,100695.09
2018-07-27T17:59:35.425Z,100707.55
2018-07-27T18:02:03.144Z,100701.57
2018-07-27T18:04:30.337Z,100704.20
2018-07-27T18:06:57.382Z,100702.52
2018-07-27T18:09:24.442Z,100699.94
2018-07-27T18:11:51.555Z,100698.31
2018-07-27T18:14:18.611Z,100696.22
2018-07-27T18:16:45.594Z,100699.22
2018-07-27T18:19:12.809Z,100702.67
2018-07-27T18:21:39.779Z,100699.69
2018-07-27T18:24:07.003Z,100701.50
2018-07-27T18:26:34.151Z,100699.75
2018-07-27T18:29:01.137Z,100704.53
2018-07-27T18:31:28.144Z,100699.41
2018-07-27T18:33:55.325Z,100701.61
2018-07-27T18:36:22.316Z,100708.09
2018-07-27T18:38:49.387Z,100709.42
2018-07-27T18:41:16.384Z,100708.14
2018-07-27T18:43:43.355Z,100708.63
2018-07-27T18:46:10.419Z,100708.65
2018-07-27T18:48:37.696Z,100711.66
2018-07-27T18:51:04.690Z,100708.22
2018-07-27T18:53:31.700Z,100716.02
2018-07-27T18:55:58.719Z,100714.30
2018-07-27T18:58:25.734Z,100715.22
2018-07-27T19:00:52.760Z,100713.50
2018-07-27T19:03:19.793Z,100712.23
2018-07-27T19:05:46.843Z,100703.66
2018-07-27T19:08:13.898Z,100706.23
2018-07-27T19:10:40.882Z,100711.01
2018-07-27T19:13:07.861Z,100705.85
2018-07-27T19:15:34.833Z,100705.02
2018-07-27T19:18:01.860Z,100702.86
2018-07-27T19:20:28.855Z,100697.73
2018-07-27T19:22:55.832Z,100696.91
2018-07-27T19:25:23.083Z,100694.30
2018-07-27T19:27:50.153Z,100696.90
2018-07-27T19:30:17.255Z,100690.45
2018-07-27T19:32:44.248Z,100697.34
2018-07-27T19:35:11.320Z,100685.75
2018-07-27T19:37:38.636Z,100688.77
2018-07-27T19:40:05.624Z,100682.77
2018-07-27T19:42:32.680Z,100681.04
2018-07-27T19:44:59.767Z,100687.05
2018-07-27T19:47:26.851Z,100688.34
2018-07-27T19:49:53.839Z,100683.17
2018-07-27T19:52:20.853Z,100690.50
2018-07-27T19:54:47.851Z,100684.48
2018-07-27T19:57:14.872Z,100687.52
2018-07-27T19:59:41.852Z,100689.22
2018-07-27T20:02:09.114Z,100677.64
2018-07-27T20:04:36.247Z,100681.08
2018-07-27T20:07:03.250Z,100680.21
2018-07-27T20:09:30.344Z,100682.37
2018-07-27T20:11:57.320Z,100675.06
2018-07-27T20:14:24.308Z,100680.21
2018-07-27T20:16:51.306Z,100682.78
2018-07-27T20:19:18.293Z,100681.08
2018-07-27T20:21:45.279Z,100681.06
2018-07-27T20:24:13.136Z,100681.95
2018-07-27T20:26:40.208Z,100676.39
2018-07-27T20:29:07.255Z,100676.39
2018-07-27T20:31:34.352Z,100672.53
2018-07-27T20:34:01.532Z,100681.97
2018-07-27T20:36:28.540Z,100669.94
2018-07-27T20:38:55.925Z,100665.25
2018-07-27T20:41:22.953Z,100673.38
2018-07-27T20:43:50.243Z,100666.55
2018-07-27T20:46:17.319Z,100662.20
2018-07-27T20:48:45.057Z,100668.69
2018-07-27T20:51:12.044Z,100666.07
2018-07-27T20:53:39.135Z,100670.78
2018-07-27T20:56:06.264Z,100664.35
2018-07-27T20:58:33.247Z,100656.22
2018-07-27T21:01:00.263Z,100660.07
2018-07-27T21:03:27.247Z,100657.50
2018-07-27T21:05:54.315Z,100659.63
2018-07-27T21:08:21.318Z,100655.35
2018-07-27T21:10:48.308Z,100649.79
2018-07-27T21:13:15.444Z,100653.21
2018-07-27T21:15:42.457Z,100653.21
2018-07-27T21:18:09.508Z,100645.06
2018-07-27T21:20:36.597Z,100641.19
2018-07-27T21:23:03.879Z,100641.63
2018-07-27T21:25:30.952Z,100638.19
2018-07-27T21:27:58.031Z,100626.19
2018-07-27T21:30:25.194Z,100627.88
2018-07-27T21:32:52.199Z,100633.01
2018-07-27T21:35:19.205Z,100630.00
2018-07-27T21:37:46.260Z,100621.85
2018-07-27T21:40:13.550Z,100624.85
2018-07-27T21:42:40.694Z,100623.56
2018-07-27T21:45:07.694Z,100619.69
2018-07-27T21:47:34.711Z,100618.37
2018-07-27T21:50:01.759Z,100616.66
2018-07-27T21:52:29.088Z,100618.79
2018-07-27T21:54:56.179Z,100621.35
2018-07-27T21:57:23.179Z,100620.92
2018-07-27T21:59:50.275Z,100618.33
2018-07-27T22:02:17.355Z,100616.59
2018-07-27T22:04:44.551Z,100606.75
2018-07-27T22:07:11.574Z,100603.32
2018-07-27T22:09:38.727Z,100608.86
2018-07-27T22:12:05.867Z,100615.20
2018-07-27T22:14:32.868Z,100607.02
2018-07-27T22:16:59.855Z,100608.74
2018-07-27T22:19:26.976Z,100609.61
2018-07-27T22:21:54.048Z,100609.20
2018-07-27T22:24:21.623Z,100607.48
2018-07-27T22:26:48.624Z,100609.16
2018-07-27T22:29:15.629Z,100611.64
2018-07-27T22:31:42.874Z,100612.92
2018-07-27T22:34:09.943Z,100612.05
2018-07-27T22:36:37.011Z,100616.33
2018-07-27T22:39:06.747Z,100617.98
2018-07-27T22:41:33.732Z,100616.70
2018-07-27T22:44:00.742Z,100611.16
2018-07-27T22:46:27.815Z,100613.67
2018-07-27T22:48:54.870Z,100617.42
2018-07-27T22:51:21.946Z,100619.09
2018-07-27T22:53:48.954Z,100616.11
2018-07-27T22:56:16.145Z,100616.48
2018-07-27T22:58:43.236Z,100615.26
2018-07-27T23:01:10.251Z,100619.87
2018-07-27T23:03:37.313Z,100624.94
2018-07-27T23:06:04.500Z,100626.63
2018-07-27T23:08:31.569Z,100621.47
2018-07-27T23:10:58.647Z,100619.73
2018-07-27T23:13:25.727Z,100619.77
2018-07-27T23:15:52.787Z,100618.88
2018-07-27T23:18:19.860Z,100620.53
2018-07-27T23:20:46.835Z,100614.92
2018-07-27T23:23:13.868Z,100616.69
2018-07-27T23:25:47.939Z,100619.25
2018-07-27T23:28:14.967Z,100622.61
2018-07-27T23:30:42.036Z,100620.44
2018-07-27T23:33:09.019Z,100616.56
2018-07-27T23:35:36.029Z,100608.45
2018-07-27T23:38:03.021Z,100609.41
2018-07-27T23:40:30.102Z,100609.70
2018-07-27T23:42:57.080Z,100605.86
2018-07-27T23:45:24.139Z,100608.75
2018-07-27T23:47:51.287Z,100611.41
2018-07-27T23:50:18.279Z,100621.16
2018-07-27T23:52:45.351Z,100614.77
2018-07-27T23:55:12.440Z,100618.27
2018-07-27T23:57:39.475Z,100605.34
